createdAt,value
2022-12-23T00:00:00.490Z,9
2022-12-23T00:01:00.651Z,9
2022-12-23T00:02:01.082Z,9
2022-12-23T00:03:01.952Z,9
2022-12-23T00:04:02.601Z,9
2022-12-23T00:05:02.938Z,9
2022-12-23T00:06:03.118Z,9
2022-12-23T00:07:03.279Z,9
2022-12-23T00:08:03.430Z,9
2022-12-23T00:09:03.580Z,9
2022-12-23T00:10:03.759Z,9
2022-12-23T00:11:03.923Z,9
2022-12-23T00:12:04.076Z,9
2022-12-23T00:13:04.229Z,9.1
2022-12-23T00:14:04.390Z,9.1
2022-12-23T00:15:04.664Z,9.1
2022-12-23T00:16:05.064Z,9.1
2022-12-23T00:17:22.832Z,9.1
2022-12-23T00:18:23.723Z,9.1
2022-12-23T00:19:23.877Z,9.1
2022-12-23T00:20:24.036Z,9.1
2022-12-23T00:21:24.205Z,9.1
2022-12-23T00:22:24.375Z,9.1
2022-12-23T00:23:24.524Z,9.1
2022-12-23T00:24:24.680Z,9.1
2022-12-23T00:25:24.836Z,9.1
2022-12-23T00:26:25.027Z,9.1
2022-12-23T00:27:25.197Z,9.1
2022-12-23T00:28:25.347Z,9.1
2022-12-23T00:29:25.529Z,9.1
2022-12-23T00:30:25.693Z,9.1
2022-12-23T00:31:25.969Z,9.1
2022-12-23T00:32:26.228Z,9.1
2022-12-23T00:33:26.402Z,9
2022-12-23T00:34:26.577Z,9
2022-12-23T00:35:26.747Z,9
2022-12-23T00:36:27.056Z,9
2022-12-23T00:37:27.318Z,9
2022-12-23T00:38:27.491Z,9
2022-12-23T00:39:27.656Z,9
2022-12-23T00:40:27.807Z,9
2022-12-23T00:41:27.977Z,9
2022-12-23T00:42:28.128Z,9
2022-12-23T00:43:28.312Z,8.8
2022-12-23T00:44:28.485Z,8.8
2022-12-23T00:45:28.731Z,8.8
2022-12-23T00:46:29.100Z,8.8
2022-12-23T00:47:29.435Z,8.8
2022-12-23T00:48:29.598Z,8.8
2022-12-23T00:49:29.831Z,8.8
2022-12-23T00:50:29.999Z,8.8
2022-12-23T00:51:30.187Z,8.8
2022-12-23T00:52:30.343Z,8.8
2022-12-23T00:53:30.513Z,8.8
2022-12-23T00:54:30.667Z,8.8
2022-12-23T00:55:30.819Z,8.8
2022-12-23T00:56:30.997Z,8.8
2022-12-23T00:57:31.147Z,8.8
2022-12-23T00:58:31.288Z,8.8
2022-12-23T00:59:31.467Z,8.8
2022-12-23T01:00:31.665Z,8.8
2022-12-23T01:01:32.207Z,8.8
2022-12-23T01:02:33.025Z,8.8
2022-12-23T01:03:33.609Z,8.8
2022-12-23T01:04:33.853Z,8.8
2022-12-23T01:05:34.020Z,8.8
2022-12-23T01:06:34.166Z,8.8
2022-12-23T01:07:34.334Z,8.8
2022-12-23T01:08:34.480Z,8.8
2022-12-23T01:09:34.630Z,8.8
2022-12-23T01:10:34.793Z,8.8
2022-12-23T01:11:34.957Z,8.8
2022-12-23T01:12:35.127Z,8.8
2022-12-23T01:13:35.282Z,8.8
2022-12-23T01:14:35.430Z,8.8
2022-12-23T01:15:35.671Z,8.8
2022-12-23T01:16:35.844Z,8.8
2022-12-23T01:17:36.137Z,8.8
2022-12-23T01:18:36.279Z,8.8
2022-12-23T01:19:36.424Z,8.8
2022-12-23T01:20:36.566Z,8.8
2022-12-23T01:21:36.725Z,8.8
2022-12-23T01:22:36.885Z,8.8
2022-12-23T01:23:37.096Z,8.8
2022-12-23T01:24:37.255Z,8.8
2022-12-23T01:25:37.438Z,8.8
2022-12-23T01:26:37.593Z,8.8
2022-12-23T01:27:37.752Z,8.8
2022-12-23T01:28:37.916Z,8.8
2022-12-23T01:29:38.067Z,8.8
2022-12-23T01:30:38.226Z,8.8
2022-12-23T01:31:38.608Z,8.8
2022-12-23T01:32:38.857Z,8.8
2022-12-23T01:33:39.016Z,8.8
2022-12-23T01:34:39.191Z,8.8
2022-12-23T01:35:39.340Z,8.8
2022-12-23T01:36:39.556Z,8.8
2022-12-23T01:37:39.730Z,8.8
2022-12-23T01:38:39.898Z,8.8
2022-12-23T01:39:40.071Z,8.8
2022-12-23T01:40:40.233Z,8.8
2022-12-23T01:41:40.704Z,8.8
2022-12-23T01:42:40.868Z,8.8
2022-12-23T01:43:41.038Z,8.89
2022-12-23T01:44:41.190Z,8.89
2022-12-23T01:45:41.418Z,8.89
2022-12-23T01:46:41.697Z,8.89
2022-12-23T01:47:41.864Z,8.89
2022-12-23T01:48:42.024Z,8.89
2022-12-23T01:49:42.187Z,8.89
2022-12-23T01:50:42.344Z,8.89
2022-12-23T01:51:42.493Z,8.89
2022-12-23T01:52:42.652Z,8.89
2022-12-23T01:53:42.815Z,9.1
2022-12-23T01:54:43.026Z,9.1
2022-12-23T01:55:43.173Z,9.1
2022-12-23T01:56:43.342Z,9.1
2022-12-23T01:57:43.496Z,9.1
2022-12-23T01:58:43.658Z,9.1
2022-12-23T01:59:43.814Z,9.1
2022-12-23T02:00:43.971Z,9.1
2022-12-23T02:01:44.324Z,9.1
2022-12-23T02:02:45.058Z,9.1
2022-12-23T02:03:45.761Z,9.2
2022-12-23T02:04:46.150Z,9.2
2022-12-23T02:05:46.301Z,9.2
2022-12-23T02:06:46.455Z,9.2
2022-12-23T02:07:46.627Z,9.2
2022-12-23T02:08:46.772Z,9.2
2022-12-23T02:09:46.943Z,9.2
2022-12-23T02:10:47.084Z,9.2
2022-12-23T02:11:47.234Z,9.2
2022-12-23T02:12:47.396Z,9.2
2022-12-23T02:13:47.540Z,9.39
2022-12-23T02:14:47.693Z,9.39
2022-12-23T02:15:47.858Z,9.39
2022-12-23T02:16:48.092Z,9.39
2022-12-23T02:17:48.335Z,9.39
2022-12-23T02:18:48.505Z,9.39
2022-12-23T02:19:48.671Z,9.39
2022-12-23T02:20:48.831Z,9.39
2022-12-23T02:21:49.069Z,9.39
2022-12-23T02:22:49.462Z,9.39
2022-12-23T02:23:49.630Z,9.6
2022-12-23T02:24:49.811Z,9.6
2022-12-23T02:25:49.987Z,9.6
2022-12-23T02:26:50.130Z,9.6
2022-12-23T02:27:50.286Z,9.6
2022-12-23T02:28:50.441Z,9.6
2022-12-23T02:29:50.633Z,9.6
2022-12-23T02:30:50.899Z,9.6
2022-12-23T02:31:51.167Z,9.6
2022-12-23T02:32:51.351Z,9.6
2022-12-23T02:33:51.513Z,9.7
2022-12-23T02:34:51.677Z,9.7
2022-12-23T02:35:51.865Z,9.7
2022-12-23T02:36:52.045Z,9.7
2022-12-23T02:37:52.204Z,9.7
2022-12-23T02:38:52.346Z,9.7
2022-12-23T02:39:52.503Z,9.7
2022-12-23T02:40:52.660Z,9.7
2022-12-23T02:41:52.826Z,9.7
2022-12-23T02:42:53.013Z,9.7
2022-12-23T02:43:53.166Z,9.89
2022-12-23T02:44:53.319Z,9.89
2022-12-23T02:45:53.583Z,9.89
2022-12-23T02:46:53.827Z,9.89
2022-12-23T02:47:53.975Z,9.89
2022-12-23T02:48:54.148Z,9.89
2022-12-23T02:49:54.306Z,9.89
2022-12-23T02:50:54.463Z,9.89
2022-12-23T02:51:54.645Z,9.89
2022-12-23T02:52:54.795Z,9.89
2022-12-23T02:53:54.972Z,10
2022-12-23T02:54:55.143Z,10
2022-12-23T02:55:55.308Z,10
2022-12-23T02:56:55.479Z,10
2022-12-23T02:57:55.649Z,10
2022-12-23T02:58:55.818Z,10
2022-12-23T02:59:55.970Z,10
2022-12-23T03:00:56.114Z,10
2022-12-23T03:01:56.594Z,10
2022-12-23T03:02:57.209Z,10
2022-12-23T03:03:57.663Z,10
2022-12-23T03:05:01.075Z,10
2022-12-23T03:06:01.537Z,10
2022-12-23T03:07:07.801Z,10
2022-12-23T03:08:12.607Z,10.1
2022-12-23T03:09:12.768Z,10.1
2022-12-23T03:10:12.937Z,10.1
2022-12-23T03:11:13.196Z,10.1
2022-12-23T03:12:13.346Z,10.1
2022-12-23T03:13:13.497Z,10.1
2022-12-23T03:14:13.649Z,10.1
2022-12-23T03:15:13.813Z,10.1
2022-12-23T03:16:14.190Z,10.1
2022-12-23T03:17:14.531Z,10.1
2022-12-23T03:18:14.675Z,10.1
2022-12-23T03:19:14.832Z,10.1
2022-12-23T03:20:14.984Z,10.1
2022-12-23T03:21:15.135Z,10.1
2022-12-23T03:22:15.293Z,10.1
2022-12-23T03:23:15.530Z,10.1
2022-12-23T03:24:15.787Z,10.1
2022-12-23T03:25:15.960Z,10.1
2022-12-23T03:26:16.127Z,10.1
2022-12-23T03:27:16.284Z,10.1
2022-12-23T03:28:16.494Z,10.1
2022-12-23T03:29:16.661Z,10.1
2022-12-23T03:30:16.806Z,10.1
2022-12-23T03:31:17.242Z,10.1
2022-12-23T03:32:17.525Z,10.1
2022-12-23T03:33:17.699Z,10
2022-12-23T03:34:17.862Z,10
2022-12-23T03:35:18.015Z,10
2022-12-23T03:36:18.172Z,10
2022-12-23T03:37:18.328Z,10
2022-12-23T03:38:18.490Z,10
2022-12-23T03:39:18.645Z,10
2022-12-23T03:40:18.799Z,10
2022-12-23T03:41:18.991Z,10
2022-12-23T03:42:19.143Z,10
2022-12-23T03:43:19.303Z,9.8
2022-12-23T03:44:19.449Z,9.8
2022-12-23T03:45:40.587Z,9.8
2022-12-23T03:46:42.083Z,9.8
2022-12-23T03:47:42.315Z,9.8
2022-12-23T03:48:42.465Z,9.8
2022-12-23T03:49:42.629Z,9.8
2022-12-23T03:50:42.833Z,9.8
2022-12-23T03:51:43.049Z,9.8
2022-12-23T03:52:43.212Z,9.8
2022-12-23T03:53:43.428Z,9.7
2022-12-23T03:54:43.603Z,9.7
2022-12-23T03:55:43.752Z,9.7
2022-12-23T03:56:43.906Z,9.7
2022-12-23T03:57:44.073Z,9.7
2022-12-23T03:58:44.228Z,9.7
2022-12-23T03:59:44.386Z,9.7
2022-12-23T04:00:44.543Z,9.7
2022-12-23T04:01:44.878Z,9.7
2022-12-23T04:02:45.592Z,9.7
2022-12-23T04:03:46.059Z,9.7
2022-12-23T04:04:46.295Z,9.7
2022-12-23T04:05:47.647Z,9.7
2022-12-23T04:06:47.807Z,9.7
2022-12-23T04:07:47.962Z,9.7
2022-12-23T04:08:48.118Z,9.7
2022-12-23T04:09:48.278Z,9.7
2022-12-23T04:10:48.448Z,9.7
2022-12-23T04:11:48.606Z,9.7
2022-12-23T04:12:48.761Z,9.7
2022-12-23T04:13:48.957Z,9.6
2022-12-23T04:14:49.164Z,9.6
2022-12-23T04:15:49.456Z,9.6
2022-12-23T04:16:49.686Z,9.6
2022-12-23T04:17:49.871Z,9.6
2022-12-23T04:18:50.037Z,9.6
2022-12-23T04:19:50.189Z,9.6
2022-12-23T04:20:50.342Z,9.6
2022-12-23T04:21:50.506Z,9.6
2022-12-23T04:22:50.681Z,9.6
2022-12-23T04:23:50.871Z,9.7
2022-12-23T04:24:51.030Z,9.7
2022-12-23T04:25:51.179Z,9.7
2022-12-23T04:26:51.347Z,9.7
2022-12-23T04:27:51.507Z,9.7
2022-12-23T04:28:51.675Z,9.7
2022-12-23T04:29:51.840Z,9.7
2022-12-23T04:30:52.004Z,9.7
2022-12-23T04:31:52.256Z,9.7
2022-12-23T04:32:52.473Z,9.7
2022-12-23T04:33:52.633Z,9.8
2022-12-23T04:34:52.845Z,9.8
2022-12-23T04:35:53.015Z,9.8
2022-12-23T04:36:53.199Z,9.8
2022-12-23T04:37:53.423Z,9.8
2022-12-23T04:38:53.600Z,9.8
2022-12-23T04:39:53.759Z,9.8
2022-12-23T04:40:53.908Z,9.8
2022-12-23T04:41:54.065Z,9.8
2022-12-23T04:42:54.254Z,9.8
2022-12-23T04:43:54.409Z,9.89
2022-12-23T04:44:54.579Z,9.89
2022-12-23T04:45:54.733Z,9.89
2022-12-23T04:46:55.025Z,9.89
2022-12-23T04:47:55.500Z,9.89
2022-12-23T04:48:55.646Z,9.89
2022-12-23T04:49:55.803Z,9.89
2022-12-23T04:50:55.965Z,9.89
2022-12-23T04:51:56.145Z,9.89
2022-12-23T04:52:56.311Z,9.89
2022-12-23T04:53:56.468Z,10
2022-12-23T04:54:56.621Z,10
2022-12-23T04:55:56.781Z,10
2022-12-23T04:56:56.963Z,10
2022-12-23T04:57:57.132Z,10
2022-12-23T04:58:57.281Z,10
2022-12-23T04:59:57.444Z,10
2022-12-23T05:00:57.670Z,10
2022-12-23T05:01:58.246Z,10
2022-12-23T05:02:58.923Z,10
2022-12-23T05:03:59.474Z,10.1
2022-12-23T05:04:59.627Z,10.1
2022-12-23T05:05:59.785Z,10.1
2022-12-23T05:06:59.953Z,10.1
2022-12-23T05:08:00.133Z,10.1
2022-12-23T05:09:00.298Z,10.1
2022-12-23T05:10:00.467Z,10.1
2022-12-23T05:11:00.612Z,10.1
2022-12-23T05:12:00.756Z,10.1
2022-12-23T05:13:00.897Z,10.1
2022-12-23T05:14:01.055Z,10.1
2022-12-23T05:15:01.219Z,10.1
2022-12-23T05:16:01.449Z,10.1
2022-12-23T05:17:07.817Z,10.1
2022-12-23T05:18:08.419Z,10.2
2022-12-23T05:19:09.128Z,10.2
2022-12-23T05:20:09.289Z,10.2
2022-12-23T05:21:09.436Z,10.2
2022-12-23T05:22:09.627Z,10.2
2022-12-23T05:23:09.789Z,10.2
2022-12-23T05:24:09.945Z,10.2
2022-12-23T05:25:10.125Z,10.2
2022-12-23T05:26:10.294Z,10.2
2022-12-23T05:27:10.459Z,10.2
2022-12-23T05:28:10.616Z,10.2
2022-12-23T05:29:10.799Z,10.2
2022-12-23T05:30:10.975Z,10.2
2022-12-23T05:31:11.248Z,10.2
2022-12-23T05:32:11.743Z,10.2
2022-12-23T05:33:12.212Z,10.2
2022-12-23T05:34:12.543Z,10.2
2022-12-23T05:35:12.812Z,10.2
2022-12-23T05:36:12.962Z,10.2
2022-12-23T05:37:13.129Z,10.2
2022-12-23T05:38:13.315Z,10.2
2022-12-23T05:39:13.524Z,10.2
2022-12-23T05:40:23.536Z,10.2
2022-12-23T05:41:32.512Z,10.3
2022-12-23T05:42:32.676Z,10.3
2022-12-23T05:43:32.853Z,10.3
2022-12-23T05:44:33.030Z,10.3
2022-12-23T05:45:33.229Z,10.3
2022-12-23T05:46:33.693Z,10.3
2022-12-23T05:47:34.107Z,10.3
2022-12-23T05:48:34.255Z,10.3
2022-12-23T05:49:34.417Z,10.3
2022-12-23T05:50:34.570Z,10.3
2022-12-23T05:51:34.738Z,10.3
2022-12-23T05:52:34.897Z,10.3
2022-12-23T05:53:35.088Z,10.4
2022-12-23T05:54:35.278Z,10.4
2022-12-23T05:55:35.427Z,10.4
2022-12-23T05:56:36.347Z,10.4
2022-12-23T05:57:36.503Z,10.4
2022-12-23T05:58:36.634Z,10.4
2022-12-23T05:59:36.832Z,10.4
2022-12-23T06:00:37.019Z,10.4
2022-12-23T06:01:37.589Z,10.4
2022-12-23T06:02:38.578Z,10.4
2022-12-23T06:03:39.543Z,10.5
2022-12-23T06:04:40.017Z,10.5
2022-12-23T06:05:40.163Z,10.5
2022-12-23T06:06:40.326Z,10.5
2022-12-23T06:07:40.518Z,10.5
2022-12-23T06:08:40.692Z,10.5
2022-12-23T06:09:40.861Z,10.5
2022-12-23T06:10:41.022Z,10.5
2022-12-23T06:11:41.225Z,10.5
2022-12-23T06:12:41.421Z,10.5
2022-12-23T06:13:41.587Z,10.5
2022-12-23T06:14:41.751Z,10.5
2022-12-23T06:15:41.928Z,10.5
2022-12-23T06:16:42.304Z,10.5
2022-12-23T06:17:42.598Z,10.5
2022-12-23T06:18:42.754Z,10.5
2022-12-23T06:19:42.928Z,10.5
2022-12-23T06:20:43.086Z,10.5
2022-12-23T06:21:43.246Z,10.5
2022-12-23T06:22:43.392Z,10.5
2022-12-23T06:23:43.571Z,10.5
2022-12-23T06:24:43.750Z,10.5
2022-12-23T06:25:43.897Z,10.5
2022-12-23T06:26:44.051Z,10.5
2022-12-23T06:27:44.230Z,10.5
2022-12-23T06:28:44.389Z,10.5
2022-12-23T06:29:44.536Z,10.5
2022-12-23T06:30:44.694Z,10.5
2022-12-23T06:31:45.040Z,10.5
2022-12-23T06:32:45.315Z,10.5
2022-12-23T06:33:45.477Z,10.5
2022-12-23T06:34:45.638Z,10.5
2022-12-23T06:35:45.793Z,10.5
2022-12-23T06:36:45.940Z,10.5
2022-12-23T06:37:46.117Z,10.5
2022-12-23T06:38:46.281Z,10.5
2022-12-23T06:39:46.429Z,10.5
2022-12-23T06:40:46.579Z,10.5
2022-12-23T06:41:46.735Z,10.5
2022-12-23T06:42:46.901Z,10.5
2022-12-23T06:43:54.364Z,10.5
2022-12-23T06:44:54.957Z,10.5
2022-12-23T06:45:55.233Z,10.5
2022-12-23T06:46:55.558Z,10.5
2022-12-23T06:47:55.703Z,10.5
2022-12-23T06:48:55.841Z,10.5
2022-12-23T06:49:56.012Z,10.5
2022-12-23T06:50:56.162Z,10.5
2022-12-23T06:51:56.324Z,10.5
2022-12-23T06:52:56.476Z,10.5
2022-12-23T06:53:56.636Z,10.4
2022-12-23T06:54:56.777Z,10.4
2022-12-23T06:55:56.938Z,10.4
2022-12-23T06:56:57.087Z,10.4
2022-12-23T06:57:57.259Z,10.4
2022-12-23T06:58:57.425Z,10.4
2022-12-23T06:59:57.590Z,10.4
2022-12-23T07:00:57.853Z,10.4
2022-12-23T07:01:58.741Z,10.4
2022-12-23T07:02:59.447Z,10.4
2022-12-23T07:03:59.899Z,10.5
2022-12-23T07:05:00.081Z,10.5
2022-12-23T07:06:00.243Z,10.5
2022-12-23T07:07:00.445Z,10.5
2022-12-23T07:08:00.633Z,10.5
2022-12-23T07:09:00.797Z,10.5
2022-12-23T07:10:00.954Z,10.5
2022-12-23T07:11:01.217Z,10.5
2022-12-23T07:12:01.386Z,10.5
2022-12-23T07:13:01.563Z,10.6
2022-12-23T07:14:01.736Z,10.6
2022-12-23T07:15:01.955Z,10.6
2022-12-23T07:16:02.118Z,10.6
2022-12-23T07:17:02.349Z,10.6
2022-12-23T07:18:02.629Z,10.6
2022-12-23T07:19:02.808Z,10.6
2022-12-23T07:20:03.019Z,10.6
2022-12-23T07:21:03.174Z,10.6
2022-12-23T07:22:03.356Z,10.6
2022-12-23T07:23:03.574Z,10.8
2022-12-23T07:24:03.749Z,10.8
2022-12-23T07:25:03.924Z,10.8
2022-12-23T07:26:04.079Z,10.8
2022-12-23T07:27:04.235Z,10.8
2022-12-23T07:28:04.416Z,10.8
2022-12-23T07:29:04.581Z,10.8
2022-12-23T07:30:04.827Z,10.8
2022-12-23T07:31:05.099Z,10.8
2022-12-23T07:32:05.384Z,10.8
2022-12-23T07:33:05.642Z,10.9
2022-12-23T07:34:05.783Z,10.9
2022-12-23T07:35:05.947Z,10.9
2022-12-23T07:36:06.106Z,10.9
2022-12-23T07:37:06.259Z,10.9
2022-12-23T07:38:06.420Z,10.9
2022-12-23T07:39:06.617Z,10.9
2022-12-23T07:40:09.244Z,10.9
2022-12-23T07:41:09.411Z,10.9
2022-12-23T07:42:45.521Z,10.9
2022-12-23T07:43:47.324Z,10.9
2022-12-23T07:44:47.523Z,10.9
2022-12-23T07:45:57.552Z,10.9
2022-12-23T07:47:00.973Z,10.8
2022-12-23T07:48:01.124Z,10.8
2022-12-23T07:49:01.280Z,10.8
2022-12-23T07:50:01.446Z,10.8
2022-12-23T07:51:01.645Z,10.8
2022-12-23T07:52:01.810Z,10.8
2022-12-23T07:53:02.079Z,10.8
2022-12-23T07:54:02.317Z,10.8
2022-12-23T07:55:02.507Z,10.8
2022-12-23T07:56:02.670Z,10.8
2022-12-23T07:57:02.832Z,10.8
2022-12-23T07:58:03.017Z,10.8
2022-12-23T07:59:03.213Z,10.8
2022-12-23T08:00:03.366Z,10.8
2022-12-23T08:01:03.742Z,10.8
2022-12-23T08:02:04.430Z,10.8
2022-12-23T08:03:05.344Z,10.7
2022-12-23T08:04:05.730Z,10.7
2022-12-23T08:05:06.086Z,10.7
2022-12-23T08:06:06.371Z,10.7
2022-12-23T08:07:06.520Z,10.7
2022-12-23T08:08:06.683Z,10.7
2022-12-23T08:09:06.841Z,10.7
2022-12-23T08:10:07.009Z,10.7
2022-12-23T08:11:07.187Z,10.7
2022-12-23T08:12:07.350Z,10.7
2022-12-23T08:13:07.508Z,10.6
2022-12-23T08:14:07.672Z,10.6
2022-12-23T08:15:07.828Z,10.6
2022-12-23T08:16:08.111Z,10.6
2022-12-23T08:17:08.614Z,10.6
2022-12-23T08:18:08.974Z,10.6
2022-12-23T08:19:09.146Z,10.6
2022-12-23T08:20:09.308Z,10.6
2022-12-23T08:21:09.467Z,10.6
2022-12-23T08:22:09.646Z,10.6
2022-12-23T08:23:09.789Z,10.5
2022-12-23T08:24:09.943Z,10.5
2022-12-23T08:25:10.096Z,10.5
2022-12-23T08:26:10.276Z,10.5
2022-12-23T08:27:10.424Z,10.5
2022-12-23T08:28:10.587Z,10.5
2022-12-23T08:29:10.762Z,10.5
2022-12-23T08:30:10.934Z,10.5
2022-12-23T08:31:11.222Z,10.5
2022-12-23T08:32:11.625Z,10.5
2022-12-23T08:33:11.787Z,10.4
2022-12-23T08:34:11.955Z,10.4
2022-12-23T08:35:12.161Z,10.4
2022-12-23T08:36:20.752Z,10.4
2022-12-23T08:37:23.783Z,10.4
2022-12-23T08:38:23.941Z,10.4
2022-12-23T08:39:24.148Z,10.4
2022-12-23T08:40:24.460Z,10.4
2022-12-23T08:41:24.687Z,10.4
2022-12-23T08:42:24.890Z,10.4
2022-12-23T08:43:35.400Z,10.4
2022-12-23T08:44:36.488Z,10.4
2022-12-23T08:45:36.651Z,10.4
2022-12-23T08:46:36.911Z,10.4
2022-12-23T08:47:37.196Z,10.4
2022-12-23T08:48:37.378Z,10.4
2022-12-23T08:49:37.556Z,10.4
2022-12-23T08:50:37.726Z,10.4
2022-12-23T08:51:37.894Z,10.4
2022-12-23T08:52:38.058Z,10.4
2022-12-23T08:53:38.211Z,10.5
2022-12-23T08:54:38.377Z,10.5
2022-12-23T08:55:38.527Z,10.5
2022-12-23T08:56:38.666Z,10.5
2022-12-23T08:57:38.821Z,10.5
2022-12-23T08:58:38.978Z,10.5
2022-12-23T08:59:39.144Z,10.5
2022-12-23T09:00:39.315Z,10.5
2022-12-23T09:01:39.690Z,10.5
2022-12-23T09:02:40.437Z,10.5
2022-12-23T09:03:41.077Z,10.6
2022-12-23T09:04:41.456Z,10.6
2022-12-23T09:05:41.601Z,10.6
2022-12-23T09:06:41.753Z,10.6
2022-12-23T09:07:41.908Z,10.6
2022-12-23T09:08:42.052Z,10.6
2022-12-23T09:09:42.211Z,10.6
2022-12-23T09:10:42.380Z,10.6
2022-12-23T09:11:42.546Z,10.6
2022-12-23T09:12:42.797Z,10.6
2022-12-23T09:13:42.965Z,10.8
2022-12-23T09:14:43.260Z,10.8
2022-12-23T09:15:43.474Z,10.8
2022-12-23T09:16:43.738Z,10.8
2022-12-23T09:17:43.928Z,10.8
2022-12-23T09:18:44.127Z,10.8
2022-12-23T09:19:53.096Z,10.8
2022-12-23T09:20:53.711Z,10.9
2022-12-23T09:21:53.892Z,10.9
2022-12-23T09:22:54.043Z,10.9
2022-12-23T09:23:54.212Z,10.9
2022-12-23T09:24:54.401Z,10.9
2022-12-23T09:25:58.735Z,10.9
2022-12-23T09:26:58.900Z,10.9
2022-12-23T09:27:59.054Z,10.9
2022-12-23T09:28:59.231Z,10.9
2022-12-23T09:29:59.393Z,10.9
2022-12-23T09:30:59.596Z,10.9
2022-12-23T09:31:59.930Z,10.9
2022-12-23T09:33:00.335Z,11.1
2022-12-23T09:34:00.518Z,11.1
2022-12-23T09:35:00.686Z,11.1
2022-12-23T09:36:00.861Z,11.1
2022-12-23T09:37:01.030Z,11.1
2022-12-23T09:38:01.190Z,11.1
2022-12-23T09:39:01.360Z,11.1
2022-12-23T09:40:01.552Z,11.1
2022-12-23T09:41:01.709Z,11.1
2022-12-23T09:42:02.001Z,11.1
2022-12-23T09:43:02.157Z,11.2
2022-12-23T09:44:02.314Z,11.2
2022-12-23T09:45:02.493Z,11.2
2022-12-23T09:46:02.724Z,11.2
2022-12-23T09:47:03.275Z,11.2
2022-12-23T09:48:03.678Z,11.2
2022-12-23T09:49:03.882Z,11.2
2022-12-23T09:50:04.053Z,11.2
2022-12-23T09:51:04.218Z,11.2
2022-12-23T09:52:04.376Z,11.2
2022-12-23T09:53:04.592Z,11.3
2022-12-23T09:54:04.740Z,11.3
2022-12-23T09:55:04.889Z,11.3
2022-12-23T09:56:05.042Z,11.3
2022-12-23T09:57:05.208Z,11.3
2022-12-23T09:58:05.363Z,11.3
2022-12-23T09:59:05.520Z,11.3
2022-12-23T10:00:05.719Z,11.3
2022-12-23T10:01:05.873Z,11.3
2022-12-23T10:02:06.242Z,11.3
2022-12-23T10:03:07.084Z,11.3
2022-12-23T10:04:07.757Z,11.3
2022-12-23T10:05:08.128Z,11.3
2022-12-23T10:06:08.303Z,11.3
2022-12-23T10:07:08.467Z,11.3
2022-12-23T10:08:08.633Z,11.3
2022-12-23T10:09:08.809Z,11.3
2022-12-23T10:10:08.970Z,11.3
2022-12-23T10:11:09.148Z,11.3
2022-12-23T10:12:09.312Z,11.3
2022-12-23T10:13:09.469Z,11.2
2022-12-23T10:14:09.633Z,11.2
2022-12-23T10:15:09.797Z,11.2
2022-12-23T10:16:10.162Z,11.2
2022-12-23T10:17:10.415Z,11.2
2022-12-23T10:18:10.576Z,11.2
2022-12-23T10:19:10.753Z,11.2
2022-12-23T10:20:10.914Z,11.2
2022-12-23T10:21:11.089Z,11.2
2022-12-23T10:22:11.293Z,11.2
2022-12-23T10:23:11.447Z,11
2022-12-23T10:24:11.616Z,11
2022-12-23T10:25:11.777Z,11
2022-12-23T10:26:11.941Z,11
2022-12-23T10:27:12.157Z,11
2022-12-23T10:28:12.321Z,11
2022-12-23T10:29:19.520Z,11
2022-12-23T10:31:23.629Z,11
2022-12-23T10:32:41.436Z,11
2022-12-23T10:33:41.771Z,11
2022-12-23T10:34:41.930Z,11
2022-12-23T10:35:42.076Z,11
2022-12-23T10:36:42.441Z,11
2022-12-23T10:37:42.791Z,11
2022-12-23T10:38:42.960Z,11
2022-12-23T10:39:43.256Z,11
2022-12-23T10:40:43.409Z,11
2022-12-23T10:41:43.574Z,11
2022-12-23T10:42:43.774Z,11
2022-12-23T10:43:44.000Z,10.9
2022-12-23T10:44:44.173Z,10.9
2022-12-23T10:45:44.326Z,10.9
2022-12-23T10:46:44.629Z,10.9
2022-12-23T10:47:44.944Z,10.9
2022-12-23T10:48:45.110Z,10.9
2022-12-23T10:49:45.258Z,10.9
2022-12-23T10:50:45.433Z,10.9
2022-12-23T10:51:45.589Z,10.9
2022-12-23T10:52:45.743Z,10.9
2022-12-23T10:53:45.944Z,10.8
2022-12-23T10:54:46.094Z,10.8
2022-12-23T10:55:46.267Z,10.8
2022-12-23T10:56:46.422Z,10.8
2022-12-23T10:57:46.579Z,10.8
2022-12-23T10:58:46.727Z,10.8
2022-12-23T10:59:46.871Z,10.8
2022-12-23T11:00:48.257Z,10.8
2022-12-23T11:01:48.686Z,10.8
2022-12-23T11:02:49.382Z,10.8
2022-12-23T11:03:49.916Z,10.8
2022-12-23T11:04:50.269Z,10.8
2022-12-23T11:05:50.428Z,10.8
2022-12-23T11:07:42.557Z,10.8
2022-12-23T11:08:45.562Z,10.8
2022-12-23T11:09:45.707Z,10.8
2022-12-23T11:10:45.868Z,10.8
2022-12-23T11:11:46.015Z,10.8
2022-12-23T11:12:46.173Z,10.8
2022-12-23T11:13:46.362Z,10.8
2022-12-23T11:14:46.522Z,10.8
2022-12-23T11:15:46.668Z,10.8
2022-12-23T11:16:48.145Z,10.8
2022-12-23T11:17:48.360Z,10.8
2022-12-23T11:18:48.515Z,10.8
2022-12-23T11:19:48.673Z,10.8
2022-12-23T11:20:48.818Z,10.8
2022-12-23T11:21:48.976Z,10.8
2022-12-23T11:22:49.171Z,10.8
2022-12-23T11:23:49.398Z,10.8
2022-12-23T11:24:49.550Z,10.8
2022-12-23T11:25:49.804Z,10.8
2022-12-23T11:26:49.967Z,10.8
2022-12-23T11:27:50.164Z,10.8
2022-12-23T11:28:50.339Z,10.8
2022-12-23T11:29:50.532Z,10.8
2022-12-23T11:30:57.084Z,10.8
2022-12-23T11:31:57.630Z,10.8
2022-12-23T11:32:57.920Z,10.8
2022-12-23T11:33:58.095Z,10.8
2022-12-23T11:34:58.373Z,10.8
2022-12-23T11:35:58.627Z,10.8
2022-12-23T11:37:07.380Z,10.8
2022-12-23T11:38:08.094Z,10.8
2022-12-23T11:39:08.249Z,10.8
2022-12-23T11:40:08.396Z,10.8
2022-12-23T11:41:08.561Z,10.8
2022-12-23T11:42:08.754Z,10.8
2022-12-23T11:43:08.902Z,10.8
2022-12-23T11:44:09.056Z,10.8
2022-12-23T11:45:09.230Z,10.8
2022-12-23T11:46:09.447Z,10.8
2022-12-23T11:47:09.741Z,10.8
2022-12-23T11:48:09.893Z,10.8
2022-12-23T11:49:10.073Z,10.8
2022-12-23T11:50:10.261Z,10.8
2022-12-23T11:51:10.436Z,10.8
2022-12-23T11:52:10.597Z,10.8
2022-12-23T11:53:10.756Z,10.8
2022-12-23T11:54:10.914Z,10.8
2022-12-23T11:55:11.074Z,10.8
2022-12-23T11:56:11.268Z,10.8
2022-12-23T11:57:11.594Z,10.8
2022-12-23T11:58:11.856Z,10.8
2022-12-23T11:59:12.028Z,10.8
2022-12-23T12:00:12.306Z,10.8
2022-12-23T12:01:12.555Z,10.8
2022-12-23T12:02:12.847Z,10.8
2022-12-23T12:03:13.168Z,10.9
2022-12-23T12:04:13.406Z,10.9
2022-12-23T12:05:13.552Z,10.9
2022-12-23T12:06:13.698Z,10.9
2022-12-23T12:07:13.855Z,10.9
2022-12-23T12:08:14.010Z,10.9
2022-12-23T12:09:14.248Z,10.9
2022-12-23T12:10:14.438Z,10.9
2022-12-23T12:11:14.588Z,10.9
2022-12-23T12:12:14.747Z,10.9
2022-12-23T12:13:14.903Z,11
2022-12-23T12:14:15.058Z,11
2022-12-23T12:15:15.209Z,11
2022-12-23T12:16:15.443Z,11
2022-12-23T12:17:15.914Z,11
2022-12-23T12:18:16.234Z,11
2022-12-23T12:19:16.385Z,11
2022-12-23T12:20:16.548Z,11
2022-12-23T12:21:16.730Z,11
2022-12-23T12:22:16.880Z,11
2022-12-23T12:23:17.048Z,11
2022-12-23T12:24:19.920Z,11
2022-12-23T12:25:20.210Z,11
2022-12-23T12:26:20.393Z,11
2022-12-23T12:27:20.547Z,11
2022-12-23T12:28:20.696Z,11
2022-12-23T12:29:20.860Z,11
2022-12-23T12:30:21.070Z,11
2022-12-23T12:31:21.486Z,11
2022-12-23T12:32:21.775Z,11
2022-12-23T12:33:21.943Z,11
2022-12-23T12:34:22.094Z,11
2022-12-23T12:35:22.237Z,11
2022-12-23T12:36:22.637Z,11
2022-12-23T12:37:22.953Z,11
2022-12-23T12:38:23.186Z,11
2022-12-23T12:39:23.342Z,11
2022-12-23T12:40:23.510Z,11
2022-12-23T12:41:23.694Z,11
2022-12-23T12:42:23.869Z,11
2022-12-23T12:43:24.273Z,10.9
2022-12-23T12:44:24.725Z,10.9
2022-12-23T12:45:24.926Z,10.9
2022-12-23T12:46:25.263Z,10.9
2022-12-23T12:47:55.134Z,10.9
2022-12-23T12:49:04.544Z,10.9
2022-12-23T12:50:04.728Z,10.9
2022-12-23T12:51:04.890Z,10.9
2022-12-23T12:52:05.047Z,10.9
2022-12-23T12:53:05.221Z,10.9
2022-12-23T12:54:06.681Z,10.9
2022-12-23T12:55:06.894Z,10.9
2022-12-23T12:56:07.039Z,10.9
2022-12-23T12:57:07.196Z,10.9
2022-12-23T12:58:07.369Z,10.9
2022-12-23T12:59:07.534Z,10.9
2022-12-23T13:00:07.695Z,10.9
2022-12-23T13:01:08.025Z,10.9
2022-12-23T13:02:08.356Z,10.9
2022-12-23T13:03:08.855Z,10.9
2022-12-23T13:04:09.196Z,10.9
2022-12-23T13:05:09.390Z,10.9
2022-12-23T13:06:09.557Z,10.9
2022-12-23T13:07:09.706Z,10.9
2022-12-23T13:08:09.850Z,10.9
2022-12-23T13:09:10.027Z,10.9
2022-12-23T13:10:10.183Z,10.9
2022-12-23T13:11:10.350Z,10.9
2022-12-23T13:12:10.507Z,10.9
2022-12-23T13:13:10.663Z,10.8
2022-12-23T13:14:10.828Z,10.8
2022-12-23T13:15:10.986Z,10.8
2022-12-23T13:16:11.142Z,10.8
2022-12-23T13:17:11.482Z,10.8
2022-12-23T13:18:11.769Z,10.8
2022-12-23T13:19:11.936Z,10.8
2022-12-23T13:20:12.113Z,10.8
2022-12-23T13:21:12.270Z,10.8
2022-12-23T13:22:12.457Z,10.8
2022-12-23T13:23:44.275Z,10.8
2022-12-23T13:24:45.539Z,10.8
2022-12-23T13:25:45.706Z,10.8
2022-12-23T13:26:45.873Z,10.8
2022-12-23T13:27:46.019Z,10.8
2022-12-23T13:28:46.170Z,10.8
2022-12-23T13:29:46.366Z,10.8
2022-12-23T13:30:46.665Z,10.8
2022-12-23T13:31:46.911Z,10.8
2022-12-23T13:32:47.102Z,10.8
2022-12-23T13:33:47.271Z,10.8
2022-12-23T13:34:48.220Z,10.8
2022-12-23T13:35:48.382Z,10.8
2022-12-23T13:36:48.681Z,10.8
2022-12-23T13:37:49.153Z,10.8
2022-12-23T13:38:49.322Z,10.8
2022-12-23T13:39:49.472Z,10.8
2022-12-23T13:40:49.643Z,10.8
2022-12-23T13:41:49.791Z,10.8